Flight Track Log - Related Links

Times and Time Zones

All times are in EST time to prevent confusion due to time zone crossing. See the EJA583 flight status page for this flight to view local times or setup timezone preferences in your user account.

Time Position Orientation Groundspeed Altitude Reporting Facility
EST Latitude Longitude Course Direction KTS MPH feet Rate Location/Type
Tue 06:56:27 AM 28.4333 -81.3333 24° Northeast 160 184 900  Level Orlando TRACON
Tue 06:56:57 AM 28.4667 -81.3167 24° Northeast 198 228 3,200 4,400 Climbing Orlando TRACON
Tue 06:57:57 AM 28.5000 -81.2833 41° Northeast 231 266 7,500 3,889 Climbing Orlando TRACON
Tue 06:58:45 AM 28.5667 -81.3000 348° North 280 322 10,200 2,500 Climbing Orlando TRACON
Tue 06:59:45 AM 28.5833 -81.3833 283° West 339 390 12,000 900 Climbing Orlando TRACON
Tue 07:00:45 AM 28.5500 -81.4833 249° West 388 447 12,000  Level Orlando TRACON
Tue 07:01:45 AM 28.5167 -81.6000 252° West 370 426 12,000  Level Orlando TRACON
Tue 07:03:33 AM 28.4667 -81.8000 254° West 358 412 12,000  Level Tampa TRACON
Tue 07:04:39 AM 28.4500 -81.9167 261° West 360 414 12,000  Level Tampa TRACON
Tue 07:05:45 AM 28.4167 -82.0333 252° West 360 414 12,000  Level Tampa TRACON
Tue 07:06:39 AM 28.4000 -82.1333 259° West 361 415 12,000  Level Tampa TRACON
Tue 07:07:39 AM 28.3167 -82.2167 221° Southwest 358 412 12,000 -545 Level Tampa TRACON
Tue 07:08:51 AM 28.2167 -82.2833 210° Southwest 338 389 10,800 -1,400 Descending Tampa TRACON
Tue 07:09:39 AM 28.1667 -82.3333 221° Southwest 299 344 9,200 -2,125 Descending Tampa TRACON
Tue 07:10:27 AM 28.1167 -82.3833 221° Southwest 288 331 7,400 -1,526 Descending Tampa TRACON
Tue 07:11:33 AM 28.0333 -82.4167 199° South 255 293 6,300 -1,650 Descending Tampa TRACON
Tue 07:12:27 AM 27.9833 -82.4333 196° South 245 282 4,100 -2,056 Descending Tampa TRACON
Tue 07:13:21 AM 27.9167 -82.4667 204° Southwest 256 295 2,600 -750 Descending Tampa TRACON
Tue 07:14:27 AM 27.8667 -82.5000 211° Southwest 236 272 2,600  Level Tampa TRACON
Tue 07:15:22 AM 27.8833 -82.5333 300° West 148 170 2,600 -744 Level Tampa TRACON
Tue 07:16:28 AM 27.9333 -82.5333 360° North 116 133 1,100 -1,364 Descending Tampa TRACON
Tue 07:18:00 AM 27.9667 -82.5167 350° North  Level FlightAware Approximate
Tue 07:25:00 AM 27.9755 -82.5332 350° North  Level Estimated
Tue 07:26:00 AM 27.9755 -82.5332 350° North  Level Estimated

Login

Don't have an account? Register now (free) for customized features, flight alerts, and more!